sensor_id;sensor_type;location;lat;lon;timestamp;P1;durP1;ratioP1;P2;durP2;ratioP2
16119;SDS011;12670;53.502;10.252;2023-02-15T00:03:02;66.30;;;32.43;;
16119;SDS011;12670;53.502;10.252;2023-02-15T00:06:06;69.33;;;33.00;;
16119;SDS011;12670;53.502;10.252;2023-02-15T00:09:09;69.70;;;33.57;;
16119;SDS011;12670;53.502;10.252;2023-02-15T00:12:13;62.40;;;31.03;;
16119;SDS011;12670;53.502;10.252;2023-02-15T00:15:16;62.33;;;32.47;;
16119;SDS011;12670;53.502;10.252;2023-02-15T00:18:19;72.13;;;32.60;;
16119;SDS011;12670;53.502;10.252;2023-02-15T00:21:23;62.17;;;31.57;;
16119;SDS011;12670;53.502;10.252;2023-02-15T00:24:25;60.60;;;30.10;;
16119;SDS011;12670;53.502;10.252;2023-02-15T00:27:28;83.07;;;32.57;;
16119;SDS011;12670;53.502;10.252;2023-02-15T00:30:31;77.27;;;32.50;;
16119;SDS011;12670;53.502;10.252;2023-02-15T00:33:34;63.20;;;31.03;;
16119;SDS011;12670;53.502;10.252;2023-02-15T00:36:38;70.03;;;31.47;;
16119;SDS011;12670;53.502;10.252;2023-02-15T00:39:41;59.90;;;29.57;;
16119;SDS011;12670;53.502;10.252;2023-02-15T00:42:44;63.77;;;30.53;;
16119;SDS011;12670;53.502;10.252;2023-02-15T00:45:46;63.93;;;30.67;;
16119;SDS011;12670;53.502;10.252;2023-02-15T00:48:49;69.87;;;30.93;;
16119;SDS011;12670;53.502;10.252;2023-02-15T00:51:53;70.13;;;31.33;;
16119;SDS011;12670;53.502;10.252;2023-02-15T00:54:56;57.87;;;29.03;;
16119;SDS011;12670;53.502;10.252;2023-02-15T00:57:58;63.97;;;30.10;;
16119;SDS011;12670;53.502;10.252;2023-02-15T01:01:05;62.07;;;30.37;;
16119;SDS011;12670;53.502;10.252;2023-02-15T01:04:09;55.73;;;28.03;;
16119;SDS011;12670;53.502;10.252;2023-02-15T01:07:13;62.60;;;30.60;;
16119;SDS011;12670;53.502;10.252;2023-02-15T01:10:16;65.17;;;29.20;;
16119;SDS011;12670;53.502;10.252;2023-02-15T01:13:18;61.33;;;29.50;;
16119;SDS011;12670;53.502;10.252;2023-02-15T01:16:22;68.27;;;29.60;;
16119;SDS011;12670;53.502;10.252;2023-02-15T01:19:25;57.43;;;29.53;;
16119;SDS011;12670;53.502;10.252;2023-02-15T01:22:29;58.40;;;27.77;;
16119;SDS011;12670;53.502;10.252;2023-02-15T01:25:33;52.60;;;26.70;;
16119;SDS011;12670;53.502;10.252;2023-02-15T01:28:36;66.10;;;29.87;;
16119;SDS011;12670;53.502;10.252;2023-02-15T01:31:39;51.50;;;27.20;;
16119;SDS011;12670;53.502;10.252;2023-02-15T01:34:42;78.57;;;28.73;;
16119;SDS011;12670;53.502;10.252;2023-02-15T01:37:46;60.87;;;28.63;;
16119;SDS011;12670;53.502;10.252;2023-02-15T01:40:50;58.83;;;27.77;;
16119;SDS011;12670;53.502;10.252;2023-02-15T01:43:53;94.40;;;28.60;;
16119;SDS011;12670;53.502;10.252;2023-02-15T01:46:57;71.43;;;27.67;;
16119;SDS011;12670;53.502;10.252;2023-02-15T01:50:02;61.43;;;26.73;;
16119;SDS011;12670;53.502;10.252;2023-02-15T01:53:13;63.43;;;27.30;;
16119;SDS011;12670;53.502;10.252;2023-02-15T01:56:23;67.70;;;28.47;;
16119;SDS011;12670;53.502;10.252;2023-02-15T01:59:29;54.90;;;26.70;;
16119;SDS011;12670;53.502;10.252;2023-02-15T02:02:33;56.30;;;26.57;;
16119;SDS011;12670;53.502;10.252;2023-02-15T02:05:37;66.00;;;28.43;;
16119;SDS011;12670;53.502;10.252;2023-02-15T02:08:42;61.47;;;26.87;;
16119;SDS011;12670;53.502;10.252;2023-02-15T02:11:46;59.93;;;25.97;;
16119;SDS011;12670;53.502;10.252;2023-02-15T02:14:50;60.03;;;25.20;;
16119;SDS011;12670;53.502;10.252;2023-02-15T02:17:57;60.17;;;26.23;;
16119;SDS011;12670;53.502;10.252;2023-02-15T02:24:42;65.23;;;25.67;;
16119;SDS011;12670;53.502;10.252;2023-02-15T02:28:07;54.80;;;25.53;;
16119;SDS011;12670;53.502;10.252;2023-02-15T02:31:35;47.27;;;22.47;;
16119;SDS011;12670;53.502;10.252;2023-02-15T02:34:53;51.43;;;25.30;;
16119;SDS011;12670;53.502;10.252;2023-02-15T02:38:03;45.30;;;23.80;;
16119;SDS011;12670;53.502;10.252;2023-02-15T02:41:12;51.30;;;23.93;;
16119;SDS011;12670;53.502;10.252;2023-02-15T02:44:22;65.23;;;25.50;;
16119;SDS011;12670;53.502;10.252;2023-02-15T02:47:30;56.37;;;24.43;;
16119;SDS011;12670;53.502;10.252;2023-02-15T02:50:38;53.43;;;24.03;;
16119;SDS011;12670;53.502;10.252;2023-02-15T02:53:41;46.03;;;22.90;;
16119;SDS011;12670;53.502;10.252;2023-02-15T02:56:44;49.77;;;23.70;;
16119;SDS011;12670;53.502;10.252;2023-02-15T02:59:51;51.37;;;23.67;;
16119;SDS011;12670;53.502;10.252;2023-02-15T03:02:58;49.30;;;22.87;;
16119;SDS011;12670;53.502;10.252;2023-02-15T03:06:08;49.03;;;22.50;;
16119;SDS011;12670;53.502;10.252;2023-02-15T03:09:15;38.97;;;21.50;;
16119;SDS011;12670;53.502;10.252;2023-02-15T03:12:26;44.10;;;21.80;;
16119;SDS011;12670;53.502;10.252;2023-02-15T03:15:33;40.60;;;21.67;;
16119;SDS011;12670;53.502;10.252;2023-02-15T03:18:53;45.50;;;20.93;;
16119;SDS011;12670;53.502;10.252;2023-02-15T03:22:03;37.57;;;19.43;;
16119;SDS011;12670;53.502;10.252;2023-02-15T03:25:10;38.63;;;19.87;;
16119;SDS011;12670;53.502;10.252;2023-02-15T03:28:18;44.00;;;20.57;;
16119;SDS011;12670;53.502;10.252;2023-02-15T03:31:24;36.63;;;19.87;;
16119;SDS011;12670;53.502;10.252;2023-02-15T03:34:30;37.37;;;19.13;;
16119;SDS011;12670;53.502;10.252;2023-02-15T03:37:35;44.23;;;20.47;;
16119;SDS011;12670;53.502;10.252;2023-02-15T03:40:43;36.77;;;19.77;;
16119;SDS011;12670;53.502;10.252;2023-02-15T03:44:06;34.30;;;19.17;;
16119;SDS011;12670;53.502;10.252;2023-02-15T03:47:16;45.60;;;19.53;;
16119;SDS011;12670;53.502;10.252;2023-02-15T03:50:24;39.60;;;19.73;;
16119;SDS011;12670;53.502;10.252;2023-02-15T03:53:48;38.13;;;18.73;;
16119;SDS011;12670;53.502;10.252;2023-02-15T03:56:52;40.20;;;18.90;;
16119;SDS011;12670;53.502;10.252;2023-02-15T04:00:11;43.03;;;20.00;;
16119;SDS011;12670;53.502;10.252;2023-02-15T04:03:33;39.03;;;20.00;;
16119;SDS011;12670;53.502;10.252;2023-02-15T04:06:41;41.57;;;19.70;;
16119;SDS011;12670;53.502;10.252;2023-02-15T04:09:45;35.47;;;17.83;;
16119;SDS011;12670;53.502;10.252;2023-02-15T04:13:05;36.00;;;18.73;;
16119;SDS011;12670;53.502;10.252;2023-02-15T04:16:08;35.70;;;18.83;;
16119;SDS011;12670;53.502;10.252;2023-02-15T04:19:10;33.27;;;17.90;;
16119;SDS011;12670;53.502;10.252;2023-02-15T04:22:32;37.17;;;18.73;;
16119;SDS011;12670;53.502;10.252;2023-02-15T04:25:53;30.73;;;17.93;;
16119;SDS011;12670;53.502;10.252;2023-02-15T04:28:56;32.20;;;17.07;;
16119;SDS011;12670;53.502;10.252;2023-02-15T04:31:59;34.23;;;17.10;;
16119;SDS011;12670;53.502;10.252;2023-02-15T04:35:03;29.03;;;16.07;;
16119;SDS011;12670;53.502;10.252;2023-02-15T04:38:06;39.20;;;16.53;;
16119;SDS011;12670;53.502;10.252;2023-02-15T04:41:10;29.67;;;18.17;;
16119;SDS011;12670;53.502;10.252;2023-02-15T04:44:14;34.20;;;18.08;;
16119;SDS011;12670;53.502;10.252;2023-02-15T04:47:16;31.03;;;16.77;;
16119;SDS011;12670;53.502;10.252;2023-02-15T04:50:19;32.33;;;17.00;;
16119;SDS011;12670;53.502;10.252;2023-02-15T04:53:22;31.03;;;16.67;;
16119;SDS011;12670;53.502;10.252;2023-02-15T04:56:26;27.83;;;16.03;;
16119;SDS011;12670;53.502;10.252;2023-02-15T04:59:31;43.67;;;17.53;;
16119;SDS011;12670;53.502;10.252;2023-02-15T05:02:33;35.80;;;16.50;;
16119;SDS011;12670;53.502;10.252;2023-02-15T05:05:36;26.97;;;14.93;;
16119;SDS011;12670;53.502;10.252;2023-02-15T05:08:39;32.13;;;15.60;;
16119;SDS011;12670;53.502;10.252;2023-02-15T05:11:43;31.77;;;16.30;;
16119;SDS011;12670;53.502;10.252;2023-02-15T05:14:45;33.30;;;16.33;;
16119;SDS011;12670;53.502;10.252;2023-02-15T05:17:48;26.97;;;15.10;;
16119;SDS011;12670;53.502;10.252;2023-02-15T05:20:51;29.50;;;16.27;;
16119;SDS011;12670;53.502;10.252;2023-02-15T05:23:54;27.30;;;14.80;;
16119;SDS011;12670;53.502;10.252;2023-02-15T05:26:58;37.33;;;16.50;;
16119;SDS011;12670;53.502;10.252;2023-02-15T05:30:18;32.53;;;16.27;;
16119;SDS011;12670;53.502;10.252;2023-02-15T05:33:21;29.50;;;16.10;;
16119;SDS011;12670;53.502;10.252;2023-02-15T05:36:23;44.50;;;16.13;;
16119;SDS011;12670;53.502;10.252;2023-02-15T05:39:26;42.57;;;16.63;;
16119;SDS011;12670;53.502;10.252;2023-02-15T05:42:30;34.70;;;15.43;;
16119;SDS011;12670;53.502;10.252;2023-02-15T05:45:33;46.57;;;15.90;;
16119;SDS011;12670;53.502;10.252;2023-02-15T05:48:35;29.13;;;15.90;;
16119;SDS011;12670;53.502;10.252;2023-02-15T05:51:38;34.40;;;16.00;;
16119;SDS011;12670;53.502;10.252;2023-02-15T05:54:41;34.37;;;16.17;;
16119;SDS011;12670;53.502;10.252;2023-02-15T05:57:45;25.93;;;15.57;;
16119;SDS011;12670;53.502;10.252;2023-02-15T06:00:47;31.13;;;15.30;;
16119;SDS011;12670;53.502;10.252;2023-02-15T06:03:50;30.20;;;15.87;;
16119;SDS011;12670;53.502;10.252;2023-02-15T06:06:53;29.43;;;15.43;;
16119;SDS011;12670;53.502;10.252;2023-02-15T06:09:55;42.23;;;15.37;;
16119;SDS011;12670;53.502;10.252;2023-02-15T06:12:59;30.77;;;15.30;;
16119;SDS011;12670;53.502;10.252;2023-02-15T06:16:02;30.63;;;15.20;;
16119;SDS011;12670;53.502;10.252;2023-02-15T06:19:06;29.80;;;14.70;;
16119;SDS011;12670;53.502;10.252;2023-02-15T06:22:08;24.73;;;14.63;;
16119;SDS011;12670;53.502;10.252;2023-02-15T06:25:11;33.60;;;14.43;;
16119;SDS011;12670;53.502;10.252;2023-02-15T06:28:15;29.53;;;14.77;;
16119;SDS011;12670;53.502;10.252;2023-02-15T06:31:17;35.20;;;14.90;;
16119;SDS011;12670;53.502;10.252;2023-02-15T06:34:20;31.27;;;14.60;;
16119;SDS011;12670;53.502;10.252;2023-02-15T06:37:23;38.67;;;15.27;;
16119;SDS011;12670;53.502;10.252;2023-02-15T06:40:25;28.60;;;15.30;;
16119;SDS011;12670;53.502;10.252;2023-02-15T06:43:29;28.47;;;14.83;;
16119;SDS011;12670;53.502;10.252;2023-02-15T06:46:32;32.50;;;15.57;;
16119;SDS011;12670;53.502;10.252;2023-02-15T06:49:35;31.47;;;14.60;;
16119;SDS011;12670;53.502;10.252;2023-02-15T06:52:37;30.20;;;14.70;;
16119;SDS011;12670;53.502;10.252;2023-02-15T06:55:40;47.70;;;14.57;;
16119;SDS011;12670;53.502;10.252;2023-02-15T06:58:44;33.53;;;14.80;;
16119;SDS011;12670;53.502;10.252;2023-02-15T07:01:49;34.23;;;14.67;;
16119;SDS011;12670;53.502;10.252;2023-02-15T07:04:52;26.17;;;15.00;;
16119;SDS011;12670;53.502;10.252;2023-02-15T07:07:55;26.10;;;15.43;;
16119;SDS011;12670;53.502;10.252;2023-02-15T07:10:57;28.13;;;14.57;;
16119;SDS011;12670;53.502;10.252;2023-02-15T07:14:21;34.10;;;14.73;;
16119;SDS011;12670;53.502;10.252;2023-02-15T07:17:24;35.50;;;15.13;;
16119;SDS011;12670;53.502;10.252;2023-02-15T07:20:37;34.37;;;14.93;;
16119;SDS011;12670;53.502;10.252;2023-02-15T07:23:42;28.90;;;14.53;;
16119;SDS011;12670;53.502;10.252;2023-02-15T07:26:45;29.70;;;14.47;;
16119;SDS011;12670;53.502;10.252;2023-02-15T07:29:49;26.70;;;14.53;;
16119;SDS011;12670;53.502;10.252;2023-02-15T07:32:54;27.27;;;14.70;;
16119;SDS011;12670;53.502;10.252;2023-02-15T07:36:14;38.17;;;15.37;;
16119;SDS011;12670;53.502;10.252;2023-02-15T07:39:17;23.00;;;13.93;;
16119;SDS011;12670;53.502;10.252;2023-02-15T07:42:19;28.90;;;13.30;;
16119;SDS011;12670;53.502;10.252;2023-02-15T07:45:24;23.73;;;13.13;;
16119;SDS011;12670;53.502;10.252;2023-02-15T07:48:27;26.23;;;14.13;;
16119;SDS011;12670;53.502;10.252;2023-02-15T07:51:30;29.57;;;14.83;;
16119;SDS011;12670;53.502;10.252;2023-02-15T07:54:32;26.40;;;14.00;;
16119;SDS011;12670;53.502;10.252;2023-02-15T07:57:35;39.07;;;14.20;;
16119;SDS011;12670;53.502;10.252;2023-02-15T08:00:39;24.53;;;14.13;;
16119;SDS011;12670;53.502;10.252;2023-02-15T08:03:56;40.53;;;14.77;;
16119;SDS011;12670;53.502;10.252;2023-02-15T08:06:59;20.73;;;12.80;;
16119;SDS011;12670;53.502;10.252;2023-02-15T08:10:02;31.63;;;14.50;;
16119;SDS011;12670;53.502;10.252;2023-02-15T08:13:04;30.67;;;13.67;;
16119;SDS011;12670;53.502;10.252;2023-02-15T08:16:08;25.07;;;13.67;;
16119;SDS011;12670;53.502;10.252;2023-02-15T08:19:15;24.20;;;12.90;;
16119;SDS011;12670;53.502;10.252;2023-02-15T08:22:19;25.63;;;13.60;;
16119;SDS011;12670;53.502;10.252;2023-02-15T08:25:22;27.87;;;13.50;;
16119;SDS011;12670;53.502;10.252;2023-02-15T08:28:24;21.63;;;13.40;;
16119;SDS011;12670;53.502;10.252;2023-02-15T08:31:28;30.90;;;13.80;;
16119;SDS011;12670;53.502;10.252;2023-02-15T08:34:32;21.67;;;12.87;;
16119;SDS011;12670;53.502;10.252;2023-02-15T08:37:36;21.77;;;12.20;;
16119;SDS011;12670;53.502;10.252;2023-02-15T08:40:39;25.90;;;13.23;;
16119;SDS011;12670;53.502;10.252;2023-02-15T08:43:41;22.40;;;13.07;;
16119;SDS011;12670;53.502;10.252;2023-02-15T08:46:47;32.80;;;14.30;;
16119;SDS011;12670;53.502;10.252;2023-02-15T08:49:50;32.43;;;14.37;;
16119;SDS011;12670;53.502;10.252;2023-02-15T08:52:53;28.63;;;14.33;;
16119;SDS011;12670;53.502;10.252;2023-02-15T08:55:56;39.60;;;14.97;;
16119;SDS011;12670;53.502;10.252;2023-02-15T08:58:59;28.93;;;14.73;;
16119;SDS011;12670;53.502;10.252;2023-02-15T09:02:03;32.37;;;15.23;;
16119;SDS011;12670;53.502;10.252;2023-02-15T09:05:06;28.03;;;13.43;;
16119;SDS011;12670;53.502;10.252;2023-02-15T09:08:09;26.70;;;13.47;;
16119;SDS011;12670;53.502;10.252;2023-02-15T09:11:12;24.27;;;14.53;;
16119;SDS011;12670;53.502;10.252;2023-02-15T09:14:18;28.50;;;13.33;;
16119;SDS011;12670;53.502;10.252;2023-02-15T09:17:24;24.50;;;14.27;;
16119;SDS011;12670;53.502;10.252;2023-02-15T09:20:26;19.73;;;13.03;;
16119;SDS011;12670;53.502;10.252;2023-02-15T09:23:30;26.37;;;14.67;;
16119;SDS011;12670;53.502;10.252;2023-02-15T09:26:33;32.20;;;14.57;;
16119;SDS011;12670;53.502;10.252;2023-02-15T09:29:39;27.47;;;14.20;;
16119;SDS011;12670;53.502;10.252;2023-02-15T09:32:43;26.83;;;14.13;;
16119;SDS011;12670;53.502;10.252;2023-02-15T09:35:47;32.80;;;13.50;;
16119;SDS011;12670;53.502;10.252;2023-02-15T09:38:52;28.60;;;15.37;;
16119;SDS011;12670;53.502;10.252;2023-02-15T09:42:11;26.60;;;14.10;;
16119;SDS011;12670;53.502;10.252;2023-02-15T09:45:30;25.20;;;14.70;;
16119;SDS011;12670;53.502;10.252;2023-02-15T09:48:44;28.70;;;14.57;;
16119;SDS011;12670;53.502;10.252;2023-02-15T09:51:57;22.47;;;13.87;;
16119;SDS011;12670;53.502;10.252;2023-02-15T09:55:17;24.97;;;14.53;;
16119;SDS011;12670;53.502;10.252;2023-02-15T09:58:40;28.17;;;14.17;;
16119;SDS011;12670;53.502;10.252;2023-02-15T10:01:52;26.80;;;14.33;;
16119;SDS011;12670;53.502;10.252;2023-02-15T10:05:05;25.70;;;13.87;;
16119;SDS011;12670;53.502;10.252;2023-02-15T10:08:29;26.07;;;14.40;;
16119;SDS011;12670;53.502;10.252;2023-02-15T10:11:54;27.10;;;15.30;;
16119;SDS011;12670;53.502;10.252;2023-02-15T10:15:07;27.13;;;15.43;;
16119;SDS011;12670;53.502;10.252;2023-02-15T10:18:33;30.60;;;15.23;;
16119;SDS011;12670;53.502;10.252;2023-02-15T10:21:51;30.63;;;14.80;;
16119;SDS011;12670;53.502;10.252;2023-02-15T10:25:18;27.33;;;16.17;;
16119;SDS011;12670;53.502;10.252;2023-02-15T10:28:31;29.13;;;16.00;;
16119;SDS011;12670;53.502;10.252;2023-02-15T10:31:46;31.03;;;15.43;;
16119;SDS011;12670;53.502;10.252;2023-02-15T10:34:52;29.33;;;16.43;;
16119;SDS011;12670;53.502;10.252;2023-02-15T10:38:05;40.43;;;15.87;;
16119;SDS011;12670;53.502;10.252;2023-02-15T10:41:19;31.43;;;16.33;;
16119;SDS011;12670;53.502;10.252;2023-02-15T10:44:36;23.80;;;14.57;;
16119;SDS011;12670;53.502;10.252;2023-02-15T10:47:55;28.37;;;16.00;;
16119;SDS011;12670;53.502;10.252;2023-02-15T10:51:19;29.07;;;16.50;;
16119;SDS011;12670;53.502;10.252;2023-02-15T10:54:32;34.20;;;17.60;;
16119;SDS011;12670;53.502;10.252;2023-02-15T10:57:43;30.83;;;16.30;;
16119;SDS011;12670;53.502;10.252;2023-02-15T11:00:54;30.07;;;17.37;;
16119;SDS011;12670;53.502;10.252;2023-02-15T11:04:22;29.27;;;16.83;;
16119;SDS011;12670;53.502;10.252;2023-02-15T11:07:42;29.20;;;16.83;;
16119;SDS011;12670;53.502;10.252;2023-02-15T11:10:49;32.77;;;18.33;;
16119;SDS011;12670;53.502;10.252;2023-02-15T11:13:57;33.50;;;18.23;;
16119;SDS011;12670;53.502;10.252;2023-02-15T11:17:04;33.47;;;18.50;;
16119;SDS011;12670;53.502;10.252;2023-02-15T11:20:15;38.83;;;19.13;;
16119;SDS011;12670;53.502;10.252;2023-02-15T11:23:21;31.60;;;17.93;;
16119;SDS011;12670;53.502;10.252;2023-02-15T11:26:28;32.27;;;17.90;;
16119;SDS011;12670;53.502;10.252;2023-02-15T11:29:36;36.17;;;18.97;;
16119;SDS011;12670;53.502;10.252;2023-02-15T11:32:43;36.37;;;18.90;;
16119;SDS011;12670;53.502;10.252;2023-02-15T11:35:48;33.40;;;18.37;;
16119;SDS011;12670;53.502;10.252;2023-02-15T11:38:57;33.10;;;18.63;;
16119;SDS011;12670;53.502;10.252;2023-02-15T11:42:06;36.50;;;19.87;;
16119;SDS011;12670;53.502;10.252;2023-02-15T11:45:19;33.83;;;18.37;;
16119;SDS011;12670;53.502;10.252;2023-02-15T11:48:28;32.50;;;18.47;;
16119;SDS011;12670;53.502;10.252;2023-02-15T11:51:33;33.87;;;19.27;;
16119;SDS011;12670;53.502;10.252;2023-02-15T11:54:39;35.57;;;19.10;;
16119;SDS011;12670;53.502;10.252;2023-02-15T11:57:46;34.90;;;19.30;;
16119;SDS011;12670;53.502;10.252;2023-02-15T12:00:56;36.07;;;18.47;;
16119;SDS011;12670;53.502;10.252;2023-02-15T12:04:04;34.73;;;18.70;;
16119;SDS011;12670;53.502;10.252;2023-02-15T12:07:11;33.83;;;19.30;;
16119;SDS011;12670;53.502;10.252;2023-02-15T12:10:20;32.67;;;18.67;;
16119;SDS011;12670;53.502;10.252;2023-02-15T12:13:28;35.10;;;19.30;;
16119;SDS011;12670;53.502;10.252;2023-02-15T12:16:32;38.90;;;20.47;;
16119;SDS011;12670;53.502;10.252;2023-02-15T12:19:43;31.03;;;18.37;;
16119;SDS011;12670;53.502;10.252;2023-02-15T12:22:52;34.83;;;20.03;;
16119;SDS011;12670;53.502;10.252;2023-02-15T12:25:57;34.57;;;20.37;;
16119;SDS011;12670;53.502;10.252;2023-02-15T12:29:05;36.03;;;19.67;;
16119;SDS011;12670;53.502;10.252;2023-02-15T12:32:16;33.77;;;20.03;;
16119;SDS011;12670;53.502;10.252;2023-02-15T12:35:22;37.43;;;20.87;;
16119;SDS011;12670;53.502;10.252;2023-02-15T12:38:29;34.20;;;18.83;;
16119;SDS011;12670;53.502;10.252;2023-02-15T12:41:32;33.00;;;19.13;;
16119;SDS011;12670;53.502;10.252;2023-02-15T12:44:36;36.37;;;19.73;;
16119;SDS011;12670;53.502;10.252;2023-02-15T12:47:39;31.97;;;19.40;;
16119;SDS011;12670;53.502;10.252;2023-02-15T12:50:42;35.60;;;19.20;;
16119;SDS011;12670;53.502;10.252;2023-02-15T12:53:45;34.43;;;19.27;;
16119;SDS011;12670;53.502;10.252;2023-02-15T12:56:48;36.17;;;20.13;;
16119;SDS011;12670;53.502;10.252;2023-02-15T12:59:53;35.13;;;19.87;;
16119;SDS011;12670;53.502;10.252;2023-02-15T13:02:57;34.13;;;19.17;;
16119;SDS011;12670;53.502;10.252;2023-02-15T13:06:01;36.97;;;20.20;;
16119;SDS011;12670;53.502;10.252;2023-02-15T13:09:12;35.10;;;20.57;;
16119;SDS011;12670;53.502;10.252;2023-02-15T13:12:20;31.60;;;18.93;;
16119;SDS011;12670;53.502;10.252;2023-02-15T13:15:27;33.43;;;19.57;;
16119;SDS011;12670;53.502;10.252;2023-02-15T13:18:36;39.77;;;20.33;;
16119;SDS011;12670;53.502;10.252;2023-02-15T13:21:43;36.17;;;19.43;;
16119;SDS011;12670;53.502;10.252;2023-02-15T13:24:48;30.63;;;18.73;;
16119;SDS011;12670;53.502;10.252;2023-02-15T13:27:56;34.67;;;18.73;;
16119;SDS011;12670;53.502;10.252;2023-02-15T13:31:04;30.63;;;18.33;;
16119;SDS011;12670;53.502;10.252;2023-02-15T13:34:15;27.30;;;17.40;;
16119;SDS011;12670;53.502;10.252;2023-02-15T13:37:25;30.10;;;17.77;;
16119;SDS011;12670;53.502;10.252;2023-02-15T13:40:48;32.17;;;18.27;;
16119;SDS011;12670;53.502;10.252;2023-02-15T13:43:58;32.00;;;17.60;;
16119;SDS011;12670;53.502;10.252;2023-02-15T13:47:13;26.63;;;17.10;;
16119;SDS011;12670;53.502;10.252;2023-02-15T13:50:29;28.57;;;18.27;;
16119;SDS011;12670;53.502;10.252;2023-02-15T13:53:55;32.83;;;18.03;;
16119;SDS011;12670;53.502;10.252;2023-02-15T13:57:16;28.37;;;16.67;;
16119;SDS011;12670;53.502;10.252;2023-02-15T14:00:36;28.40;;;16.77;;
16119;SDS011;12670;53.502;10.252;2023-02-15T14:04:00;27.03;;;17.93;;
16119;SDS011;12670;53.502;10.252;2023-02-15T14:07:33;27.93;;;16.90;;
16119;SDS011;12670;53.502;10.252;2023-02-15T14:10:50;28.47;;;17.30;;
16119;SDS011;12670;53.502;10.252;2023-02-15T14:14:06;32.03;;;18.33;;
16119;SDS011;12670;53.502;10.252;2023-02-15T14:17:23;29.97;;;18.33;;
16119;SDS011;12670;53.502;10.252;2023-02-15T14:20:41;28.20;;;17.80;;
16119;SDS011;12670;53.502;10.252;2023-02-15T14:23:53;33.40;;;18.37;;
16119;SDS011;12670;53.502;10.252;2023-02-15T14:27:07;30.07;;;18.17;;
16119;SDS011;12670;53.502;10.252;2023-02-15T14:30:18;30.40;;;18.17;;
16119;SDS011;12670;53.502;10.252;2023-02-15T14:33:29;29.87;;;17.67;;
16119;SDS011;12670;53.502;10.252;2023-02-15T14:36:37;28.77;;;17.87;;
16119;SDS011;12670;53.502;10.252;2023-02-15T14:39:42;35.37;;;19.07;;
16119;SDS011;12670;53.502;10.252;2023-02-15T14:43:08;31.33;;;18.67;;
16119;SDS011;12670;53.502;10.252;2023-02-15T14:46:20;31.87;;;17.77;;
16119;SDS011;12670;53.502;10.252;2023-02-15T14:49:30;29.83;;;18.47;;
16119;SDS011;12670;53.502;10.252;2023-02-15T14:52:37;30.43;;;18.20;;
16119;SDS011;12670;53.502;10.252;2023-02-15T14:56:18;31.30;;;18.10;;
16119;SDS011;12670;53.502;10.252;2023-02-15T14:59:23;34.73;;;19.03;;
16119;SDS011;12670;53.502;10.252;2023-02-15T15:02:27;34.30;;;19.17;;
16119;SDS011;12670;53.502;10.252;2023-02-15T15:05:47;30.67;;;18.87;;
16119;SDS011;12670;53.502;10.252;2023-02-15T15:08:53;30.03;;;18.40;;
16119;SDS011;12670;53.502;10.252;2023-02-15T15:12:14;31.93;;;18.97;;
16119;SDS011;12670;53.502;10.252;2023-02-15T15:15:33;32.67;;;19.37;;
16119;SDS011;12670;53.502;10.252;2023-02-15T15:18:43;32.10;;;18.93;;
16119;SDS011;12670;53.502;10.252;2023-02-15T15:21:56;32.87;;;18.43;;
16119;SDS011;12670;53.502;10.252;2023-02-15T15:25:10;31.23;;;19.23;;
16119;SDS011;12670;53.502;10.252;2023-02-15T15:31:55;32.57;;;19.10;;
16119;SDS011;12670;53.502;10.252;2023-02-15T15:35:06;32.63;;;19.53;;
16119;SDS011;12670;53.502;10.252;2023-02-15T15:38:27;33.30;;;19.70;;
16119;SDS011;12670;53.502;10.252;2023-02-15T15:41:43;30.87;;;18.53;;
16119;SDS011;12670;53.502;10.252;2023-02-15T15:44:58;32.40;;;18.80;;
16119;SDS011;12670;53.502;10.252;2023-02-15T15:48:29;31.73;;;18.20;;
16119;SDS011;12670;53.502;10.252;2023-02-15T15:51:34;37.03;;;17.83;;
16119;SDS011;12670;53.502;10.252;2023-02-15T15:54:42;33.00;;;18.53;;
16119;SDS011;12670;53.502;10.252;2023-02-15T15:57:48;34.93;;;18.63;;
16119;SDS011;12670;53.502;10.252;2023-02-15T16:00:54;35.60;;;18.50;;
16119;SDS011;12670;53.502;10.252;2023-02-15T16:04:01;32.60;;;18.53;;
16119;SDS011;12670;53.502;10.252;2023-02-15T16:07:13;32.93;;;18.30;;
16119;SDS011;12670;53.502;10.252;2023-02-15T16:10:25;31.63;;;18.63;;
16119;SDS011;12670;53.502;10.252;2023-02-15T16:13:31;32.10;;;18.77;;
16119;SDS011;12670;53.502;10.252;2023-02-15T16:16:35;34.13;;;18.63;;
16119;SDS011;12670;53.502;10.252;2023-02-15T16:19:38;32.90;;;18.77;;
16119;SDS011;12670;53.502;10.252;2023-02-15T16:22:43;34.87;;;19.70;;
16119;SDS011;12670;53.502;10.252;2023-02-15T16:25:47;37.30;;;20.47;;
16119;SDS011;12670;53.502;10.252;2023-02-15T16:29:00;32.57;;;19.07;;
16119;SDS011;12670;53.502;10.252;2023-02-15T16:32:04;34.27;;;18.27;;
16119;SDS011;12670;53.502;10.252;2023-02-15T16:35:12;29.47;;;17.97;;
16119;SDS011;12670;53.502;10.252;2023-02-15T16:38:16;30.20;;;18.43;;
16119;SDS011;12670;53.502;10.252;2023-02-15T16:41:22;29.37;;;17.73;;
16119;SDS011;12670;53.502;10.252;2023-02-15T16:44:29;28.90;;;17.43;;
16119;SDS011;12670;53.502;10.252;2023-02-15T16:47:36;30.33;;;18.30;;
16119;SDS011;12670;53.502;10.252;2023-02-15T16:50:45;27.57;;;16.70;;
16119;SDS011;12670;53.502;10.252;2023-02-15T16:53:50;27.93;;;16.57;;
16119;SDS011;12670;53.502;10.252;2023-02-15T16:56:54;26.97;;;16.80;;
16119;SDS011;12670;53.502;10.252;2023-02-15T17:00:02;30.33;;;18.07;;
16119;SDS011;12670;53.502;10.252;2023-02-15T17:03:19;29.10;;;17.27;;
16119;SDS011;12670;53.502;10.252;2023-02-15T17:06:25;29.73;;;17.37;;
16119;SDS011;12670;53.502;10.252;2023-02-15T17:09:30;28.03;;;17.03;;
16119;SDS011;12670;53.502;10.252;2023-02-15T17:12:42;26.23;;;16.00;;
16119;SDS011;12670;53.502;10.252;2023-02-15T17:16:06;27.87;;;16.70;;
16119;SDS011;12670;53.502;10.252;2023-02-15T17:19:30;31.73;;;18.30;;
16119;SDS011;12670;53.502;10.252;2023-02-15T17:22:35;30.73;;;18.00;;
16119;SDS011;12670;53.502;10.252;2023-02-15T17:25:41;30.17;;;17.70;;
16119;SDS011;12670;53.502;10.252;2023-02-15T17:28:45;32.27;;;18.07;;
16119;SDS011;12670;53.502;10.252;2023-02-15T17:31:51;27.43;;;16.20;;
16119;SDS011;12670;53.502;10.252;2023-02-15T17:34:59;28.15;;;18.95;;
16119;SDS011;12670;53.502;10.252;2023-02-15T17:38:15;29.33;;;18.07;;
16119;SDS011;12670;53.502;10.252;2023-02-15T17:41:20;28.03;;;16.43;;
16119;SDS011;12670;53.502;10.252;2023-02-15T17:44:22;26.40;;;16.10;;
16119;SDS011;12670;53.502;10.252;2023-02-15T17:47:26;25.40;;;15.80;;
16119;SDS011;12670;53.502;10.252;2023-02-15T17:50:30;27.00;;;15.47;;
16119;SDS011;12670;53.502;10.252;2023-02-15T17:53:33;23.70;;;14.27;;
16119;SDS011;12670;53.502;10.252;2023-02-15T17:56:37;24.50;;;14.90;;
16119;SDS011;12670;53.502;10.252;2023-02-15T17:59:39;28.20;;;16.17;;
16119;SDS011;12670;53.502;10.252;2023-02-15T18:03:00;26.30;;;16.07;;
16119;SDS011;12670;53.502;10.252;2023-02-15T18:06:20;26.57;;;16.30;;
16119;SDS011;12670;53.502;10.252;2023-02-15T18:09:41;25.87;;;15.43;;
16119;SDS011;12670;53.502;10.252;2023-02-15T18:13:01;26.50;;;15.40;;